createdAt,value
2018-07-30T00:01:46.661Z,38.30
2018-07-30T00:04:29.384Z,33.90
2018-07-30T00:07:12.268Z,31.30
2018-07-30T00:09:55.102Z,32.47
2018-07-30T00:12:38.704Z,32.40
2018-07-30T00:15:21.662Z,34.87
2018-07-30T00:18:04.260Z,35.40
2018-07-30T00:20:46.859Z,29.27
2018-07-30T00:23:29.602Z,39.73
2018-07-30T00:26:12.504Z,45.40
2018-07-30T00:28:55.521Z,50.00
2018-07-30T00:31:38.328Z,33.07
2018-07-30T00:34:21.048Z,34.43
2018-07-30T00:37:03.795Z,35.30
2018-07-30T00:39:46.776Z,37.60
2018-07-30T00:42:29.689Z,38.20
2018-07-30T00:45:12.732Z,32.60
2018-07-30T00:47:55.843Z,31.27
2018-07-30T00:50:39.296Z,37.87
2018-07-30T00:53:21.838Z,36.77
2018-07-30T00:56:04.524Z,40.30
2018-07-30T00:58:47.322Z,39.93
2018-07-30T01:01:29.912Z,34.10
2018-07-30T01:04:12.928Z,37.73
2018-07-30T01:06:55.448Z,42.50
2018-07-30T01:09:38.193Z,35.40
2018-07-30T01:12:21.115Z,37.20
2018-07-30T01:15:03.898Z,34.87
2018-07-30T01:17:46.745Z,38.03
2018-07-30T01:20:29.368Z,44.80
2018-07-30T01:23:12.416Z,36.60
2018-07-30T01:25:55.172Z,37.47
2018-07-30T01:28:37.216Z,37.83
2018-07-30T01:31:19.895Z,33.93
2018-07-30T01:34:02.872Z,35.40
2018-07-30T01:36:45.512Z,38.17
2018-07-30T01:39:28.779Z,52.47
2018-07-30T01:42:11.171Z,41.37
2018-07-30T01:44:54.055Z,38.93
2018-07-30T01:47:36.706Z,43.50
2018-07-30T01:50:19.711Z,36.47
2018-07-30T01:53:02.211Z,39.30
2018-07-30T01:55:44.840Z,35.90
2018-07-30T01:58:27.828Z,34.83
2018-07-30T02:01:13.488Z,39.23
2018-07-30T02:03:56.180Z,37.93
2018-07-30T02:06:38.794Z,36.43
2018-07-30T02:09:21.396Z,37.07
2018-07-30T02:12:04.514Z,38.17
2018-07-30T02:14:47.045Z,40.83
2018-07-30T02:17:29.911Z,40.83
2018-07-30T02:20:12.040Z,32.03
2018-07-30T02:22:55.005Z,36.47
2018-07-30T02:25:37.594Z,35.63
2018-07-30T02:28:20.626Z,36.33
2018-07-30T02:31:03.100Z,40.43
2018-07-30T02:33:45.969Z,35.87
2018-07-30T02:36:28.838Z,37.60
2018-07-30T02:39:13.823Z,35.40
2018-07-30T02:41:56.173Z,36.63
2018-07-30T02:44:39.323Z,37.40
2018-07-30T02:47:22.229Z,44.30
2018-07-30T02:50:05.069Z,36.60
2018-07-30T02:52:47.752Z,31.93
2018-07-30T02:55:30.549Z,40.20
2018-07-30T02:58:13.103Z,38.73
2018-07-30T03:00:56.002Z,34.63
2018-07-30T03:03:39.229Z,33.30
2018-07-30T03:06:21.963Z,47.43
2018-07-30T03:09:06.746Z,31.47
2018-07-30T03:11:49.456Z,35.70
2018-07-30T03:14:32.182Z,35.63
2018-07-30T03:17:15.094Z,42.83
2018-07-30T03:19:57.775Z,48.30
2018-07-30T03:22:40.630Z,30.80
2018-07-30T03:25:23.433Z,34.33
2018-07-30T03:28:06.094Z,37.60
2018-07-30T03:30:49.339Z,28.03
2018-07-30T03:33:31.870Z,36.03
2018-07-30T03:36:14.765Z,33.00
2018-07-30T03:38:57.507Z,28.17
2018-07-30T03:41:40.773Z,33.97
2018-07-30T03:44:24.222Z,26.20
2018-07-30T03:47:07.222Z,32.43
2018-07-30T03:49:49.692Z,30.90
2018-07-30T03:52:32.966Z,37.57
2018-07-30T03:55:15.629Z,39.33
2018-07-30T03:57:58.019Z,33.33
2018-07-30T04:00:40.768Z,47.37
2018-07-30T04:03:23.513Z,44.50
2018-07-30T04:06:06.317Z,53.63
2018-07-30T04:08:49.004Z,61.77
2018-07-30T04:11:32.332Z,80.13
2018-07-30T04:14:14.966Z,92.53
2018-07-30T04:16:57.639Z,64.60
2018-07-30T04:19:40.495Z,170.07
2018-07-30T04:22:23.402Z,111.93
2018-07-30T04:25:06.384Z,97.80
2018-07-30T04:27:48.790Z,99.90
2018-07-30T04:30:31.437Z,58.27
2018-07-30T04:33:14.160Z,55.37
2018-07-30T04:35:56.837Z,55.57
2018-07-30T04:38:39.621Z,38.90
2018-07-30T04:41:22.433Z,77.60
2018-07-30T04:44:05.213Z,65.20
2018-07-30T04:46:47.855Z,50.67
2018-07-30T04:49:30.461Z,45.57
2018-07-30T04:52:14.052Z,36.80
2018-07-30T04:54:56.962Z,26.27
2018-07-30T04:57:39.634Z,39.27
2018-07-30T05:00:22.277Z,37.13
2018-07-30T05:03:06.814Z,37.27
2018-07-30T05:05:50.141Z,27.60
2018-07-30T05:08:32.900Z,28.90
2018-07-30T05:11:15.768Z,38.87
2018-07-30T05:13:58.756Z,37.23
2018-07-30T05:16:41.925Z,43.63
2018-07-30T05:19:25.176Z,49.00
2018-07-30T05:22:08.127Z,51.57
2018-07-30T05:24:50.932Z,34.43
2018-07-30T05:27:33.678Z,38.03
2018-07-30T05:30:16.438Z,44.43
2018-07-30T05:32:59.260Z,33.10
2018-07-30T05:35:42.228Z,53.60
2018-07-30T05:38:25.028Z,45.97
2018-07-30T05:41:08.624Z,55.30
2018-07-30T05:43:51.783Z,42.53
2018-07-30T05:46:34.230Z,31.23
2018-07-30T05:49:17.062Z,36.33
2018-07-30T05:51:59.608Z,47.27
2018-07-30T05:54:42.511Z,32.97
2018-07-30T05:57:25.498Z,30.23
2018-07-30T06:00:08.267Z,37.50
2018-07-30T06:02:51.376Z,28.73
2018-07-30T06:05:35.241Z,26.00
2018-07-30T06:08:17.990Z,30.83
2018-07-30T06:11:01.549Z,35.13
2018-07-30T06:13:44.315Z,33.13
2018-07-30T06:16:27.116Z,28.13
2018-07-30T06:19:09.829Z,40.03
2018-07-30T06:21:52.428Z,41.77
2018-07-30T06:24:35.422Z,76.97
2018-07-30T06:27:18.352Z,56.27
2018-07-30T06:30:00.856Z,38.57
2018-07-30T06:32:43.679Z,26.90
2018-07-30T06:35:26.775Z,25.03
2018-07-30T06:38:09.510Z,25.23
2018-07-30T06:40:51.885Z,23.97
2018-07-30T06:43:34.739Z,20.17
2018-07-30T06:46:17.507Z,18.97
2018-07-30T06:49:00.284Z,26.43
2018-07-30T06:51:42.957Z,20.40
2018-07-30T06:54:25.492Z,21.30
2018-07-30T06:57:08.151Z,19.17
2018-07-30T06:59:51.057Z,19.30
2018-07-30T07:02:33.636Z,20.30
2018-07-30T07:05:16.976Z,21.63
2018-07-30T07:07:59.912Z,20.30
2018-07-30T07:10:42.869Z,17.47
2018-07-30T07:13:25.896Z,14.73
2018-07-30T07:16:08.542Z,19.50
2018-07-30T07:18:51.577Z,17.92
2018-07-30T07:21:33.826Z,14.53
2018-07-30T07:24:17.135Z,15.98
2018-07-30T07:26:59.834Z,26.70
2018-07-30T07:29:43.232Z,14.50
2018-07-30T07:32:26.061Z,21.90
2018-07-30T07:35:08.835Z,13.72
2018-07-30T07:37:51.985Z,19.48
2018-07-30T07:40:34.701Z,12.00
2018-07-30T07:43:17.380Z,18.92
2018-07-30T07:46:00.567Z,19.52
2018-07-30T07:48:43.156Z,10.13
2018-07-30T07:51:25.584Z,10.68
2018-07-30T07:54:08.931Z,14.50
2018-07-30T07:56:51.148Z,10.35
2018-07-30T07:59:33.866Z,10.55
2018-07-30T08:02:16.562Z,11.45
2018-07-30T08:04:59.437Z,12.05
2018-07-30T08:07:42.364Z,11.57
2018-07-30T08:10:24.370Z,10.38
2018-07-30T08:13:06.714Z,12.55
2018-07-30T08:15:49.773Z,9.13
2018-07-30T08:18:32.323Z,16.07
2018-07-30T08:21:15.183Z,8.48
2018-07-30T08:23:59.847Z,7.78
2018-07-30T08:26:43.010Z,13.60
2018-07-30T08:29:25.617Z,8.88
2018-07-30T08:32:08.261Z,7.85
2018-07-30T08:34:51.110Z,10.63
2018-07-30T08:37:34.437Z,20.70
2018-07-30T08:40:16.667Z,9.00
2018-07-30T08:42:59.660Z,16.50
2018-07-30T08:45:42.205Z,19.05
2018-07-30T08:48:25.100Z,7.75
2018-07-30T08:51:08.152Z,21.57
2018-07-30T08:53:50.921Z,8.63
2018-07-30T08:56:33.513Z,6.62
2018-07-30T08:59:16.378Z,7.50
2018-07-30T09:01:59.644Z,15.32
2018-07-30T09:04:41.717Z,13.00
2018-07-30T09:07:24.682Z,11.93
2018-07-30T09:10:07.782Z,11.57
2018-07-30T09:12:51.044Z,6.67
2018-07-30T09:15:33.823Z,6.95
2018-07-30T09:18:16.497Z,7.80
2018-07-30T09:20:59.338Z,9.10
2018-07-30T09:23:41.967Z,8.55
2018-07-30T09:26:25.107Z,7.50
2018-07-30T09:29:07.487Z,14.00
2018-07-30T09:31:50.215Z,13.62
2018-07-30T09:34:32.996Z,15.63
2018-07-30T09:37:15.908Z,6.50
2018-07-30T09:39:58.492Z,6.33
2018-07-30T09:42:41.237Z,8.85
2018-07-30T09:45:24.052Z,8.98
2018-07-30T09:48:06.876Z,8.68
2018-07-30T09:50:49.582Z,10.13
2018-07-30T09:53:32.320Z,6.17
2018-07-30T09:56:15.138Z,14.78
2018-07-30T09:58:57.987Z,16.07
2018-07-30T10:01:40.793Z,10.55
2018-07-30T10:04:23.720Z,10.28
2018-07-30T10:07:06.858Z,8.40
2018-07-30T10:09:49.372Z,6.87
2018-07-30T10:12:32.319Z,9.25
2018-07-30T10:15:15.337Z,9.28
2018-07-30T10:17:57.834Z,8.45
2018-07-30T10:20:40.789Z,16.70
2018-07-30T10:23:23.601Z,12.95
2018-07-30T10:26:06.363Z,12.50
2018-07-30T10:28:49.155Z,7.08
2018-07-30T10:31:33.076Z,6.05
2018-07-30T10:34:15.561Z,10.32
2018-07-30T10:36:58.535Z,9.18
2018-07-30T10:39:41.225Z,6.78
2018-07-30T10:42:23.959Z,6.35
2018-07-30T10:45:07.677Z,7.22
2018-07-30T10:47:50.665Z,7.20
2018-07-30T10:50:33.446Z,6.37
2018-07-30T10:53:16.317Z,9.35
2018-07-30T10:56:00.343Z,9.40
2018-07-30T10:58:43.296Z,8.33
2018-07-30T11:01:27.028Z,7.78
2018-07-30T11:04:10.629Z,8.45
2018-07-30T11:06:53.427Z,8.20
2018-07-30T11:09:35.937Z,6.33
2018-07-30T11:12:19.132Z,6.67
2018-07-30T11:15:01.709Z,12.03
2018-07-30T11:17:44.664Z,11.65
2018-07-30T11:20:27.292Z,6.05
2018-07-30T11:23:10.429Z,6.25
2018-07-30T11:25:53.171Z,7.97
2018-07-30T11:28:36.037Z,6.25
2018-07-30T11:31:18.294Z,9.13
2018-07-30T11:34:01.172Z,8.65
2018-07-30T11:36:44.109Z,7.47
2018-07-30T11:39:27.168Z,6.20
2018-07-30T11:42:09.472Z,8.60
2018-07-30T11:44:52.793Z,8.20
2018-07-30T11:47:35.288Z,6.75
2018-07-30T11:50:17.916Z,7.03
2018-07-30T11:53:01.079Z,10.70
2018-07-30T11:55:43.058Z,7.40
2018-07-30T11:58:26.996Z,7.08
2018-07-30T12:01:10.291Z,14.47
2018-07-30T12:03:52.974Z,6.85
2018-07-30T12:06:35.999Z,9.30
2018-07-30T12:09:18.617Z,9.73
2018-07-30T12:12:02.091Z,8.55
2018-07-30T12:14:46.070Z,17.12
2018-07-30T12:17:29.211Z,8.48
2018-07-30T12:20:12.063Z,10.38
2018-07-30T12:22:54.745Z,10.18
2018-07-30T12:25:38.185Z,11.12
2018-07-30T12:28:21.528Z,11.22
2018-07-30T12:31:04.053Z,11.57
2018-07-30T12:33:48.006Z,8.80
2018-07-30T12:36:31.700Z,7.20
2018-07-30T12:39:15.237Z,9.23
2018-07-30T12:41:59.720Z,9.30
2018-07-30T12:44:42.552Z,8.30
2018-07-30T12:47:25.710Z,7.90
2018-07-30T12:50:08.187Z,8.20
2018-07-30T12:52:51.204Z,9.23
2018-07-30T12:55:34.356Z,7.70
2018-07-30T12:58:17.688Z,10.15
2018-07-30T13:01:00.335Z,10.10
2018-07-30T13:03:43.283Z,7.85
2018-07-30T13:06:26.422Z,11.10
2018-07-30T13:09:10.492Z,7.62
2018-07-30T13:11:53.019Z,8.05
2018-07-30T13:14:36.775Z,7.28
2018-07-30T13:17:19.752Z,9.48
2018-07-30T13:20:02.495Z,7.80
2018-07-30T13:22:45.369Z,11.80
2018-07-30T13:25:27.963Z,11.75
2018-07-30T13:28:10.832Z,8.03
2018-07-30T13:30:54.185Z,8.33
2018-07-30T13:33:38.326Z,9.30
2018-07-30T13:36:21.541Z,8.40
2018-07-30T13:39:06.824Z,8.68
2018-07-30T13:41:49.843Z,7.20
2018-07-30T13:44:33.277Z,11.45
2018-07-30T13:47:16.583Z,9.43
2018-07-30T13:50:00.075Z,10.63
2018-07-30T13:52:42.468Z,8.05
2018-07-30T13:55:25.404Z,7.85
2018-07-30T13:58:08.731Z,7.97
2018-07-30T14:00:51.005Z,8.03
2018-07-30T14:03:34.106Z,7.85
2018-07-30T14:06:16.921Z,8.43
2018-07-30T14:08:59.865Z,9.08
2018-07-30T14:11:42.513Z,8.63
2018-07-30T14:14:25.637Z,7.90
2018-07-30T14:17:08.134Z,8.25
2018-07-30T14:19:50.908Z,16.87
2018-07-30T14:22:33.609Z,8.15
2018-07-30T14:25:16.377Z,18.10
2018-07-30T14:27:59.166Z,8.28
2018-07-30T14:30:42.079Z,7.60
2018-07-30T14:33:24.905Z,13.03
2018-07-30T14:36:07.268Z,8.03
2018-07-30T14:38:49.706Z,11.15
2018-07-30T14:41:32.975Z,9.25
2018-07-30T14:44:15.331Z,7.78
2018-07-30T14:46:58.462Z,9.55
2018-07-30T14:49:41.372Z,12.82
2018-07-30T14:52:24.349Z,13.13
2018-07-30T14:55:08.001Z,7.75
2018-07-30T14:57:51.371Z,11.18
2018-07-30T15:00:34.314Z,8.35
2018-07-30T15:03:17.466Z,8.53
2018-07-30T15:05:59.937Z,10.03
2018-07-30T15:08:42.759Z,7.45
2018-07-30T15:11:25.645Z,8.93
2018-07-30T15:14:08.700Z,8.70
2018-07-30T15:16:51.289Z,9.95
2018-07-30T15:19:33.874Z,7.75
2018-07-30T15:22:16.579Z,9.03
2018-07-30T15:24:59.186Z,8.00
2018-07-30T15:27:42.295Z,15.05
2018-07-30T15:30:24.691Z,10.82
2018-07-30T15:33:07.844Z,10.48
2018-07-30T15:35:50.210Z,11.80
2018-07-30T15:38:34.660Z,9.55
2018-07-30T15:41:17.578Z,16.23
2018-07-30T15:44:00.828Z,8.13
2018-07-30T15:46:44.260Z,9.08
2018-07-30T15:49:27.635Z,11.28
2018-07-30T15:52:10.628Z,7.60
2018-07-30T15:54:54.712Z,10.03
2018-07-30T15:57:37.876Z,7.55
2018-07-30T16:00:20.705Z,10.88
2018-07-30T16:03:03.748Z,7.03
2018-07-30T16:05:46.588Z,6.78
2018-07-30T16:08:29.984Z,7.22
2018-07-30T16:11:13.044Z,7.70
2018-07-30T16:13:55.932Z,6.45
2018-07-30T16:16:38.497Z,6.22
2018-07-30T16:19:21.927Z,7.87
2018-07-30T16:22:05.246Z,7.22
2018-07-30T16:24:48.231Z,6.00
2018-07-30T16:27:31.593Z,11.80
2018-07-30T16:30:14.640Z,12.00
2018-07-30T16:32:58.054Z,14.13
2018-07-30T16:35:40.932Z,6.65
2018-07-30T16:38:23.934Z,6.33
2018-07-30T16:41:06.781Z,6.97
2018-07-30T16:43:49.773Z,7.17
2018-07-30T16:46:33.904Z,8.60
2018-07-30T16:49:16.212Z,6.67
2018-07-30T16:51:59.198Z,9.95
2018-07-30T16:54:42.038Z,11.53
2018-07-30T16:57:24.746Z,5.95
2018-07-30T17:00:10.341Z,7.62
2018-07-30T17:02:53.434Z,6.97
2018-07-30T17:05:36.040Z,7.53
2018-07-30T17:08:19.203Z,6.58
2018-07-30T17:11:01.777Z,6.83
2018-07-30T17:13:44.635Z,6.83
2018-07-30T17:16:28.145Z,6.28
2018-07-30T17:19:10.578Z,6.25
2018-07-30T17:21:53.483Z,10.13
2018-07-30T17:24:36.804Z,5.92
2018-07-30T17:27:19.968Z,16.52
2018-07-30T17:30:03.173Z,6.22
2018-07-30T17:32:45.675Z,16.82
2018-07-30T17:35:28.779Z,16.70
2018-07-30T17:38:11.493Z,8.03
2018-07-30T17:40:54.281Z,7.75
2018-07-30T17:43:37.105Z,9.28
2018-07-30T17:46:19.490Z,9.38
2018-07-30T17:49:03.238Z,13.43
2018-07-30T17:51:46.047Z,9.10
2018-07-30T17:54:28.798Z,21.60
2018-07-30T17:57:11.307Z,11.43
2018-07-30T17:59:54.109Z,17.40
2018-07-30T18:02:36.835Z,16.60
2018-07-30T18:05:20.807Z,12.28
2018-07-30T18:08:03.820Z,13.48
2018-07-30T18:10:46.494Z,17.83
2018-07-30T18:13:28.897Z,17.10
2018-07-30T18:16:11.636Z,18.92
2018-07-30T18:18:54.404Z,10.35
2018-07-30T18:21:36.875Z,12.30
2018-07-30T18:24:19.892Z,12.40
2018-07-30T18:27:02.674Z,12.30
2018-07-30T18:29:45.622Z,12.33
2018-07-30T18:32:28.225Z,11.23
2018-07-30T18:35:11.569Z,9.80
2018-07-30T18:37:53.928Z,14.40
2018-07-30T18:40:36.805Z,11.17
2018-07-30T18:43:19.401Z,18.67
2018-07-30T18:46:02.509Z,16.20
2018-07-30T18:48:45.262Z,10.33
2018-07-30T18:51:27.951Z,11.43
2018-07-30T18:54:10.539Z,11.73
2018-07-30T18:56:54.208Z,13.87
2018-07-30T18:59:37.252Z,15.13
2018-07-30T19:02:20.168Z,12.63
2018-07-30T19:05:03.002Z,21.07
2018-07-30T19:07:45.754Z,13.20
2018-07-30T19:10:29.012Z,12.90
2018-07-30T19:13:11.838Z,15.10
2018-07-30T19:15:55.126Z,10.27
2018-07-30T19:18:37.807Z,10.73
2018-07-30T19:21:20.889Z,13.63
2018-07-30T19:24:03.464Z,12.50
2018-07-30T19:26:46.081Z,13.43
2018-07-30T19:29:28.818Z,14.50
2018-07-30T19:32:11.518Z,15.90
2018-07-30T19:34:54.657Z,13.10
2018-07-30T19:37:37.272Z,15.60
2018-07-30T19:40:20.025Z,11.67
2018-07-30T19:43:03.012Z,15.80
2018-07-30T19:45:45.583Z,21.00
2018-07-30T19:48:28.077Z,12.47
2018-07-30T19:51:11.981Z,12.90
2018-07-30T19:53:54.801Z,15.23
2018-07-30T19:56:37.458Z,12.87
2018-07-30T19:59:20.607Z,16.73
2018-07-30T20:02:03.172Z,14.83
2018-07-30T20:04:45.882Z,15.37
2018-07-30T20:07:29.033Z,18.27
2018-07-30T20:10:11.427Z,14.40
2018-07-30T20:12:54.438Z,14.63
2018-07-30T20:15:37.152Z,20.30
2018-07-30T20:18:19.883Z,13.23
2018-07-30T20:21:03.220Z,12.40
2018-07-30T20:23:46.514Z,11.30
2018-07-30T20:26:29.443Z,13.13
2018-07-30T20:29:11.848Z,14.53
2018-07-30T20:31:54.738Z,15.37
2018-07-30T20:34:37.388Z,16.70
2018-07-30T20:37:20.251Z,27.43
2018-07-30T20:40:03.124Z,37.63
2018-07-30T20:42:46.067Z,23.60
2018-07-30T20:45:28.829Z,16.10
2018-07-30T20:48:12.192Z,19.37
2018-07-30T20:50:55.296Z,14.07
2018-07-30T20:53:38.849Z,14.90
2018-07-30T20:56:22.044Z,19.17
2018-07-30T20:59:04.916Z,23.30
2018-07-30T21:01:47.420Z,14.93
2018-07-30T21:04:30.731Z,27.03
2018-07-30T21:07:13.140Z,18.97
2018-07-30T21:09:56.141Z,27.50
2018-07-30T21:12:38.954Z,13.07
2018-07-30T21:15:21.607Z,13.13
2018-07-30T21:18:04.346Z,17.47
2018-07-30T21:20:46.820Z,50.53
2018-07-30T21:23:30.586Z,14.03
2018-07-30T21:26:14.520Z,14.30
2018-07-30T21:28:57.424Z,27.80
2018-07-30T21:31:40.443Z,27.03
2018-07-30T21:34:23.369Z,10.63
2018-07-30T21:37:06.500Z,24.93
2018-07-30T21:39:49.306Z,19.20
2018-07-30T21:42:31.803Z,25.30
2018-07-30T21:45:14.628Z,13.40
2018-07-30T21:47:57.783Z,10.77
2018-07-30T21:50:40.378Z,23.43
2018-07-30T21:53:23.196Z,43.33
2018-07-30T21:56:06.192Z,17.23
2018-07-30T21:58:48.888Z,9.53
2018-07-30T22:01:32.162Z,30.73
2018-07-30T22:04:14.517Z,21.60
2018-07-30T22:06:57.294Z,11.57
2018-07-30T22:09:40.203Z,12.00
2018-07-30T22:12:23.107Z,14.63
2018-07-30T22:15:05.755Z,9.53
2018-07-30T22:17:48.612Z,37.13
2018-07-30T22:20:31.160Z,23.20
2018-07-30T22:23:14.299Z,27.63
2018-07-30T22:25:57.067Z,10.20
2018-07-30T22:28:39.901Z,16.93
2018-07-30T22:31:22.515Z,37.53
2018-07-30T22:34:06.019Z,22.67
2018-07-30T22:36:48.933Z,25.83
2018-07-30T22:39:31.530Z,19.83
2018-07-30T22:42:14.264Z,14.93
2018-07-30T22:44:57.087Z,11.43
2018-07-30T22:47:39.707Z,11.77
2018-07-30T22:50:22.423Z,26.03
2018-07-30T22:53:05.045Z,24.50
2018-07-30T22:55:47.700Z,27.03
2018-07-30T22:58:30.372Z,21.57
2018-07-30T23:01:13.238Z,19.10
2018-07-30T23:03:56.077Z,11.73
2018-07-30T23:06:38.722Z,12.47
2018-07-30T23:09:21.488Z,20.73
2018-07-30T23:12:04.247Z,16.03
2018-07-30T23:14:46.935Z,17.63
2018-07-30T23:17:29.656Z,29.57
2018-07-30T23:20:12.330Z,22.90
2018-07-30T23:22:55.210Z,17.23
2018-07-30T23:25:38.080Z,13.73
2018-07-30T23:28:20.921Z,33.53
2018-07-30T23:31:04.177Z,15.27
2018-07-30T23:33:47.584Z,16.40
2018-07-30T23:36:30.539Z,25.80
2018-07-30T23:39:13.641Z,28.33
2018-07-30T23:41:56.594Z,21.90
2018-07-30T23:44:39.351Z,16.67
2018-07-30T23:47:22.279Z,12.83
2018-07-30T23:50:05.332Z,13.90
2018-07-30T23:52:47.879Z,14.70
2018-07-30T23:55:30.441Z,15.43
2018-07-30T23:58:12.981Z,12.83
